Time;durP1;ratioP1;P1;durP2;ratioP2;P2;SDS_P1;SDS_P2;PMS_P1;PMS_P2;Temp;Humidity;BMP_temperature;BMP_pressure;BME280_temperature;BME280_humidity;BME280_pressure;Samples;Min_cycle;Max_cycle;Signal;HPM_P1;HPM_P2
2023/01/26 00:00:45;;;;;;;34.93;14.40;;;;;;;0.48;100.00;100298.25;5091849;28;20268;-75
2023/01/26 00:03:11;;;;;;;33.83;14.27;;;;;;;0.48;100.00;100287.72;5091751;28;20343;-75
2023/01/26 00:05:38;;;;;;;36.27;14.67;;;;;;;0.53;100.00;100285.66;5091594;28;20032;-75
2023/01/26 00:08:05;;;;;;;38.37;15.60;;;;;;;0.46;100.00;100287.03;5094468;28;20284;-75
2023/01/26 00:10:30;;;;;;;36.60;14.90;;;;;;;0.46;100.00;100279.13;5095391;28;20743;-75
2023/01/26 00:12:56;;;;;;;36.30;15.70;;;;;;;0.45;100.00;100279.25;5095571;28;20271;-74
2023/01/26 00:15:22;;;;;;;42.33;16.40;;;;;;;0.38;100.00;100278.78;5095460;28;20107;-74
2023/01/26 00:17:51;;;;;;;44.73;17.77;;;;;;;0.42;100.00;100276.81;5095499;28;20035;-74
2023/01/26 00:20:17;;;;;;;49.37;18.93;;;;;;;0.40;100.00;100273.44;5095304;28;20107;-75
2023/01/26 00:22:42;;;;;;;39.83;16.00;;;;;;;0.33;100.00;100270.41;5095319;28;20288;-74
2023/01/26 00:25:09;;;;;;;45.53;16.27;;;;;;;0.37;100.00;100269.22;5095293;28;20062;-74
2023/01/26 00:27:35;;;;;;;43.80;17.20;;;;;;;0.42;100.00;100261.88;5095289;28;20773;-75
2023/01/26 00:30:01;;;;;;;43.33;16.53;;;;;;;0.43;100.00;100258.31;5095009;28;20284;-74
2023/01/26 00:32:26;;;;;;;50.60;17.57;;;;;;;0.35;100.00;100266.69;5094849;28;20406;-74
2023/01/26 00:34:52;;;;;;;51.27;19.00;;;;;;;0.33;100.00;100262.50;5095189;28;20043;-74
2023/01/26 00:37:17;;;;;;;55.50;19.10;;;;;;;0.31;100.00;100259.97;5094938;28;20121;-75
2023/01/26 00:39:43;;;;;;;56.07;20.47;;;;;;;0.39;100.00;100259.44;5095110;28;20034;-75
2023/01/26 00:42:12;;;;;;;55.57;19.40;;;;;;;0.37;100.00;100253.44;5094839;28;20079;-74
2023/01/26 00:44:39;;;;;;;51.23;18.43;;;;;;;0.41;100.00;100257.56;5095099;28;20484;-74
2023/01/26 00:47:06;;;;;;;56.97;20.03;;;;;;;0.36;100.00;100236.81;5076696;28;20802;-74
2023/01/26 00:49:33;;;;;;;52.73;18.77;;;;;;;0.41;100.00;100243.56;5094878;28;20355;-74
2023/01/26 00:51:59;;;;;;;58.77;21.43;;;;;;;0.35;100.00;100229.03;5094913;28;20301;-75
2023/01/26 00:54:25;;;;;;;59.90;20.93;;;;;;;0.35;100.00;100231.66;5095038;28;20260;-74
2023/01/26 00:56:50;;;;;;;62.47;21.87;;;;;;;0.40;100.00;100247.13;5094687;28;20727;-74
2023/01/26 00:59:16;;;;;;;58.03;21.17;;;;;;;0.42;100.00;100232.94;5094679;28;20309;-74
2023/01/26 01:01:41;;;;;;;62.90;21.23;;;;;;;0.34;100.00;100243.16;5094748;28;20493;-74
2023/01/26 01:04:07;;;;;;;59.93;21.83;;;;;;;0.36;100.00;100233.34;5076417;28;20024;-75
2023/01/26 01:06:32;;;;;;;63.40;22.60;;;;;;;0.31;100.00;100236.31;5094533;28;20023;-75
2023/01/26 01:08:58;;;;;;;66.60;23.27;;;;;;;0.32;100.00;100237.16;5094235;28;20056;-74
2023/01/26 01:11:23;;;;;;;69.10;21.47;;;;;;;0.30;100.00;100228.53;5094648;28;20387;-75
2023/01/26 01:13:49;;;;;;;64.20;22.73;;;;;;;0.28;100.00;100239.16;5094446;28;20040;-75
2023/01/26 01:16:15;;;;;;;64.80;21.40;;;;;;;0.20;100.00;100228.31;5094616;28;20107;-75
2023/01/26 01:18:43;;;;;;;59.77;21.33;;;;;;;0.23;100.00;100228.09;5093751;28;20023;-75
2023/01/26 01:21:11;;;;;;;56.77;19.53;;;;;;;0.21;100.00;100227.38;5094310;28;20429;-75
2023/01/26 01:23:40;;;;;;;58.90;20.37;;;;;;;0.25;100.00;100222.72;5094257;28;20626;-74
2023/01/26 01:26:07;;;;;;;57.93;19.63;;;;;;;0.26;100.00;100230.50;5094148;28;20265;-75
2023/01/26 01:28:34;;;;;;;54.83;19.63;;;;;;;0.28;100.00;100231.25;5093981;28;20280;-75
2023/01/26 01:31:20;;;;;;;56.20;20.90;;;;;;;0.29;100.00;100232.94;5094283;28;20264;-75
2023/01/26 01:33:46;;;;;;;55.60;20.43;;;;;;;0.26;100.00;100221.78;5075384;28;20265;-75
2023/01/26 01:36:13;;;;;;;54.17;19.23;;;;;;;0.27;100.00;100219.06;5094107;28;20778;-75
2023/01/26 01:38:40;;;;;;;56.27;19.80;;;;;;;0.26;100.00;100219.16;5093954;28;20027;-75
2023/01/26 01:41:07;;;;;;;55.13;18.77;;;;;;;0.27;100.00;100226.09;5093880;28;20260;-75
2023/01/26 01:43:34;;;;;;;61.77;22.00;;;;;;;0.27;100.00;100219.06;5094006;28;20260;-75
2023/01/26 01:46:02;;;;;;;60.13;19.83;;;;;;;0.30;100.00;100213.59;5093810;28;20261;-75
2023/01/26 01:48:50;;;;;;;56.53;19.80;;;;;;;0.31;100.00;100217.91;5093668;28;20326;-75
2023/01/26 01:51:20;;;;;;;58.33;19.80;;;;;;;0.31;100.00;100203.94;5075651;28;20314;-75
2023/01/26 01:53:50;;;;;;;54.43;19.77;;;;;;;0.20;100.00;100190.69;5093527;28;20339;-75
2023/01/26 01:56:20;;;;;;;56.30;20.33;;;;;;;0.35;100.00;100208.00;5075420;28;20347;-75
2023/01/26 01:58:49;;;;;;;55.00;20.63;;;;;;;0.30;100.00;100194.34;5093121;28;20276;-75
2023/01/26 02:01:14;;;;;;;62.43;21.00;;;;;;;0.29;100.00;100183.00;5093646;28;20303;-75
2023/01/26 02:03:43;;;;;;;55.37;19.63;;;;;;;0.31;100.00;100191.63;5093446;28;20292;-75
2023/01/26 02:06:15;;;;;;;56.87;20.47;;;;;;;0.30;100.00;100194.34;5093492;28;20493;-75
2023/01/26 02:08:50;;;;;;;51.27;18.63;;;;;;;0.26;100.00;100193.72;5092963;28;20356;-75
2023/01/26 02:11:40;;;;;;;54.27;19.60;;;;;;;0.33;100.00;100194.16;5075161;28;20291;-75
2023/01/26 02:14:08;;;;;;;57.50;20.30;;;;;;;0.25;100.00;100185.94;5075035;28;20351;-75
2023/01/26 02:16:34;;;;;;;57.17;20.13;;;;;;;0.33;100.00;100179.22;5093027;28;20259;-75
2023/01/26 02:19:03;;;;;;;49.07;18.43;;;;;;;0.36;100.00;100188.66;5093081;28;20264;-75
2023/01/26 02:21:30;;;;;;;50.37;17.53;;;;;;;0.25;100.00;100175.41;5093146;28;20081;-75
2023/01/26 02:23:58;;;;;;;46.57;17.13;;;;;;;0.38;100.00;100175.41;5092983;28;20330;-75
2023/01/26 02:26:28;;;;;;;43.50;16.20;;;;;;;0.37;100.00;100169.31;5092992;28;20313;-75
2023/01/26 02:28:54;;;;;;;40.97;15.83;;;;;;;0.36;100.00;100167.63;5092638;28;20646;-74
2023/01/26 02:31:22;;;;;;;47.20;16.13;;;;;;;0.34;100.00;100159.03;5092587;28;20268;-75
2023/01/26 02:33:48;;;;;;;43.60;14.80;;;;;;;0.31;100.00;100151.34;5092850;28;20267;-75
2023/01/26 02:36:29;;;;;;;41.00;15.30;;;;;;;0.40;100.00;100158.59;5092934;28;20285;-75
2023/01/26 02:39:03;;;;;;;34.40;13.23;;;;;;;0.44;100.00;100154.81;5092549;28;20268;-75
2023/01/26 02:44:14;;;;;;;30.07;12.37;;;;;;;0.41;100.00;100146.28;5092949;28;20251;-75
2023/01/26 02:46:39;;;;;;;32.47;12.60;;;;;;;0.46;100.00;100145.03;5092682;28;20735;-75
2023/01/26 02:51:49;;;;;;;29.13;11.53;;;;;;;0.40;100.00;100137.56;5092747;28;20074;-75
2023/01/26 02:57:00;;;;;;;35.97;13.87;;;;;;;0.42;100.00;100124.31;5092389;28;20063;-75
2023/01/26 02:59:25;;;;;;;36.13;12.83;;;;;;;0.48;100.00;100129.97;5092240;28;20355;-75
2023/01/26 03:01:54;;;;;;;33.10;13.20;;;;;;;0.48;100.00;100127.31;5092560;28;20031;-75
2023/01/26 03:04:20;;;;;;;32.03;13.17;;;;;;;0.51;100.00;100129.75;5092388;28;20078;-75
2023/01/26 03:06:45;;;;;;;30.40;12.43;;;;;;;0.38;100.00;100125.47;5092580;28;20285;-75
2023/01/26 03:09:14;;;;;;;29.33;12.50;;;;;;;0.39;100.00;100114.00;5092215;28;20095;-75
2023/01/26 03:11:42;;;;;;;29.90;11.70;;;;;;;0.36;100.00;100117.66;5092467;28;20081;-75
2023/01/26 03:14:11;;;;;;;34.50;12.60;;;;;;;0.34;100.00;100117.81;5092345;28;20260;-75
2023/01/26 03:16:37;;;;;;;29.13;12.07;;;;;;;0.31;100.00;100123.28;5092337;28;20267;-75
2023/01/26 03:27:26;;;;;;;27.73;11.10;;;;;;;0.19;100.00;100116.25;5092162;28;20754;-75
2023/01/26 03:29:56;;;;;;;29.00;11.27;;;;;;;0.23;100.00;100120.31;5091939;28;20359;-75
2023/01/26 03:32:22;;;;;;;25.73;10.53;;;;;;;0.26;100.00;100119.28;5092191;28;20264;-75
2023/01/26 03:34:48;;;;;;;26.87;11.47;;;;;;;0.20;100.00;100112.66;5073845;28;20268;-75
2023/01/26 03:37:13;;;;;;;22.53;9.90;;;;;;;0.26;100.00;100111.38;5091946;28;20294;-75
2023/01/26 03:56:22;;;;;;;24.03;9.80;;;;;;;0.18;100.00;100105.84;5096096;28;20260;-75
2023/01/26 03:58:56;;;;;;;23.93;9.80;;;;;;;0.13;100.00;100103.50;5095547;28;20325;-74
2023/01/26 04:01:26;;;;;;;24.80;9.90;;;;;;;0.16;100.00;100098.03;5077511;28;20273;-75
2023/01/26 04:09:25;;;;;;;22.10;9.17;;;;;;;0.10;100.00;100092.41;5095408;28;20638;-74
2023/01/26 04:11:50;;;;;;;29.13;11.53;;;;;;;0.07;100.00;100087.34;5095688;28;20253;-74
2023/01/26 04:22:42;;;;;;;20.77;8.87;;;;;;;0.12;100.00;100072.91;5095751;28;20276;-74
2023/01/26 04:25:16;;;;;;;25.03;10.13;;;;;;;0.11;100.00;100066.00;5095348;28;20264;-74
2023/01/26 04:27:43;;;;;;;23.17;10.13;;;;;;;0.13;100.00;100079.00;5095175;28;20263;-74
2023/01/26 04:30:10;;;;;;;24.17;9.83;;;;;;;0.15;100.00;100063.97;5076435;28;20333;-75
2023/01/26 04:32:36;;;;;;;22.50;9.30;;;;;;;0.15;100.00;100070.09;5095160;28;20661;-74
2023/01/26 04:35:03;;;;;;;23.33;9.93;;;;;;;0.11;100.00;100067.78;5095142;28;20409;-74
2023/01/26 04:37:29;;;;;;;23.67;10.30;;;;;;;0.08;100.00;100068.00;5076809;28;20020;-74
2023/01/26 04:39:55;;;;;;;23.43;10.00;;;;;;;0.07;100.00;100072.41;5095171;28;20267;-74
2023/01/26 04:42:23;;;;;;;24.80;10.60;;;;;;;0.02;100.00;100064.00;5095327;28;20074;-74
2023/01/26 04:44:50;;;;;;;24.57;10.53;;;;;;;0.02;100.00;100057.91;5095040;28;20027;-74
2023/01/26 04:47:16;;;;;;;25.57;10.17;;;;;;;0.07;100.00;100064.53;5094950;28;20753;-74
2023/01/26 04:49:42;;;;;;;23.73;9.83;;;;;;;0.07;100.00;100054.03;5095037;28;20276;-75
2023/01/26 04:52:07;;;;;;;24.70;9.80;;;;;;;0.01;100.00;100062.31;5094299;28;20031;-74
2023/01/26 04:54:34;;;;;;;28.03;10.87;;;;;;;-0.02;100.00;100060.78;5094836;28;20510;-74
2023/01/26 04:56:59;;;;;;;29.03;11.40;;;;;;;-0.08;100.00;100063.81;5094956;28;20073;-74
2023/01/26 04:59:27;;;;;;;26.43;10.63;;;;;;;-0.09;100.00;100056.88;5094551;28;20673;-75
2023/01/26 05:01:53;;;;;;;24.80;11.07;;;;;;;-0.11;100.00;100053.50;5076646;28;20020;-75
2023/01/26 05:04:18;;;;;;;28.40;11.47;;;;;;;-0.12;100.00;100058.88;5094798;28;20665;-75
2023/01/26 05:06:45;;;;;;;28.17;10.27;;;;;;;-0.08;100.00;100060.34;5094767;28;20098;-75
2023/01/26 05:09:10;;;;;;;24.77;11.03;;;;;;;-0.04;100.00;100060.03;5094656;28;20023;-75
2023/01/26 05:11:36;;;;;;;27.73;11.83;;;;;;;0.02;100.00;100057.91;5094895;28;20318;-75
2023/01/26 05:14:02;;;;;;;25.33;10.43;;;;;;;0.00;100.00;100056.22;5094510;28;20069;-75
2023/01/26 05:16:27;;;;;;;23.37;10.43;;;;;;;0.02;100.00;100045.59;5094657;28;20111;-75
2023/01/26 05:18:54;;;;;;;26.73;10.73;;;;;;;-0.06;100.00;100040.91;5094399;28;20335;-75
2023/01/26 05:21:23;;;;;;;27.47;10.87;;;;;;;-0.01;100.00;100044.06;5094439;28;20026;-75
2023/01/26 05:23:49;;;;;;;25.83;10.57;;;;;;;-0.04;100.00;100043.41;5094430;28;20256;-75
2023/01/26 05:26:15;;;;;;;29.67;11.10;;;;;;;-0.08;100.00;100048.03;5094266;28;20351;-75
2023/01/26 05:28:40;;;;;;;26.33;10.60;;;;;;;-0.06;100.00;100046.16;5094188;28;20351;-75
2023/01/26 05:31:06;;;;;;;26.77;11.53;;;;;;;-0.01;100.00;100049.31;5094210;28;20028;-75
2023/01/26 05:33:31;;;;;;;31.00;11.93;;;;;;;0.03;100.00;100049.06;5075938;28;20045;-75
2023/01/26 05:35:57;;;;;;;27.83;11.50;;;;;;;-0.04;100.00;100036.38;5094137;28;20035;-75
2023/01/26 05:38:23;;;;;;;31.17;12.03;;;;;;;-0.05;100.00;100047.84;5093905;28;20421;-75
2023/01/26 05:40:49;;;;;;;31.13;12.90;;;;;;;0.00;100.00;100050.97;5094099;28;20431;-75
2023/01/26 05:43:14;;;;;;;29.63;11.47;;;;;;;-0.05;100.00;100044.38;5093945;28;20066;-75
2023/01/26 05:45:40;;;;;;;27.63;12.40;;;;;;;0.03;100.00;100056.97;5093755;28;20031;-75
2023/01/26 05:48:06;;;;;;;29.97;11.60;;;;;;;-0.01;100.00;100046.69;5075524;28;20024;-75
2023/01/26 05:50:32;;;;;;;27.60;11.67;;;;;;;0.04;100.00;100051.59;5093759;28;20016;-75
2023/01/26 05:52:59;;;;;;;31.73;12.73;;;;;;;0.05;100.00;100053.28;5093847;28;20513;-75
2023/01/26 05:55:26;;;;;;;32.63;12.73;;;;;;;0.07;100.00;100055.81;5093760;28;20484;-75
2023/01/26 05:57:52;;;;;;;34.50;12.97;;;;;;;0.07;100.00;100059.28;5093221;28;20296;-75
2023/01/26 06:00:18;;;;;;;32.43;12.73;;;;;;;0.05;100.00;100058.53;5093662;28;20331;-75
2023/01/26 06:02:44;;;;;;;32.37;12.43;;;;;;;0.06;100.00;100062.84;5093715;28;20028;-75
2023/01/26 06:05:10;;;;;;;29.27;12.60;;;;;;;0.08;100.00;100055.72;5093334;28;20272;-75
2023/01/26 06:07:36;;;;;;;31.57;12.47;;;;;;;0.02;100.00;100053.50;5093554;28;20112;-75
2023/01/26 06:10:02;;;;;;;34.10;12.97;;;;;;;-0.02;100.00;100058.13;5093291;28;20355;-75
2023/01/26 06:12:34;;;;;;;37.43;13.57;;;;;;;-0.04;100.00;100057.41;5075293;28;20667;-75
2023/01/26 06:15:00;;;;;;;34.43;12.97;;;;;;;-0.08;100.00;100060.34;5093284;28;20309;-75
2023/01/26 06:17:26;;;;;;;32.27;12.73;;;;;;;-0.05;100.00;100057.50;5093296;28;20268;-75
2023/01/26 06:19:51;;;;;;;34.20;13.00;;;;;;;-0.05;100.00;100063.59;5093253;28;20253;-75
2023/01/26 06:22:17;;;;;;;35.30;13.10;;;;;;;-0.03;100.00;100056.47;5093291;28;20491;-75
2023/01/26 06:24:43;;;;;;;33.57;12.53;;;;;;;-0.11;100.00;100069.25;5093134;28;20028;-75
2023/01/26 06:27:17;;;;;;;30.23;12.37;;;;;;;-0.13;100.00;100058.06;5093309;28;20129;-75
2023/01/26 06:29:44;;;;;;;34.78;13.13;;;;;;;-0.08;100.00;100065.59;5093172;28;20551;-75
2023/01/26 06:32:11;;;;;;;31.07;13.37;;;;;;;-0.15;100.00;100056.47;5093146;28;20028;-75
2023/01/26 06:34:36;;;;;;;32.00;13.70;;;;;;;-0.16;100.00;100053.00;5093188;28;20272;-75
2023/01/26 06:37:02;;;;;;;28.63;11.80;;;;;;;-0.12;100.00;100057.09;5074876;28;20758;-75
2023/01/26 06:39:27;;;;;;;30.83;11.83;;;;;;;-0.11;100.00;100056.13;5075005;28;20023;-75
2023/01/26 06:41:56;;;;;;;33.67;13.10;;;;;;;-0.05;100.00;100054.88;5092842;28;20081;-75
2023/01/26 06:44:21;;;;;;;31.67;12.15;;;;;;;-0.06;100.00;100055.81;5092945;28;20054;-75
2023/01/26 06:46:47;;;;;;;34.27;12.77;;;;;;;-0.07;100.00;100048.88;5092724;28;20020;-76
2023/01/26 06:49:12;;;;;;;31.40;12.03;;;;;;;-0.06;100.00;100058.44;5092628;28;20436;-75
2023/01/26 06:52:00;;;;;;;36.47;13.60;;;;;;;-0.04;100.00;100048.69;5092704;28;20066;-75
2023/01/26 06:54:25;;;;;;;34.65;12.60;;;;;;;-0.09;100.00;100053.41;5092988;28;20027;-75
2023/01/26 06:56:51;;;;;;;30.57;12.23;;;;;;;-0.08;100.00;100055.94;5092793;28;20474;-75
2023/01/26 06:59:17;;;;;;;34.03;13.20;;;;;;;-0.04;100.00;100051.31;5092438;28;20047;-75
2023/01/26 07:01:47;;;;;;;32.45;12.98;;;;;;;-0.03;100.00;100066.13;5092612;28;20509;-75
2023/01/26 07:04:24;;;;;;;31.85;12.85;;;;;;;-0.04;100.00;100060.03;5091987;28;20034;-76
2023/01/26 07:06:50;;;;;;;33.43;13.50;;;;;;;-0.06;100.00;100061.91;5092648;28;20478;-75
2023/01/26 07:09:16;;;;;;;34.07;14.53;;;;;;;0.05;100.00;100060.31;5092542;28;20276;-75
2023/01/26 07:11:42;;;;;;;29.63;13.63;;;;;;;-0.04;100.00;100046.06;5092508;28;20275;-75
2023/01/26 07:14:08;;;;;;;34.73;14.20;;;;;;;0.01;100.00;100043.91;5092377;28;20028;-75
2023/01/26 07:16:34;;;;;;;40.27;16.47;;;;;;;0.07;100.00;100053.19;5091867;28;20597;-76
2023/01/26 07:19:00;;;;;;;35.20;12.73;;;;;;;-0.06;100.00;100048.78;5092358;28;20024;-75
2023/01/26 07:21:25;;;;;;;33.07;13.07;;;;;;;-0.02;100.00;100039.75;5092242;28;20322;-75
2023/01/26 07:23:52;;;;;;;32.40;13.17;;;;;;;0.00;100.00;100039.66;5092524;28;20093;-76
2023/01/26 07:26:18;;;;;;;36.43;14.37;;;;;;;0.08;100.00;100049.59;5092204;28;20110;-76
2023/01/26 07:28:44;;;;;;;32.43;13.77;;;;;;;-0.01;100.00;100054.56;5074453;28;20310;-76
2023/01/26 07:31:10;;;;;;;35.77;15.23;;;;;;;-0.02;100.00;100046.78;5092557;28;20261;-77
2023/01/26 07:33:36;;;;;;;33.83;15.53;;;;;;;-0.05;100.00;100041.75;5092456;28;20048;-79
2023/01/26 07:36:03;;;;;;;43.87;15.87;;;;;;;-0.06;100.00;100043.53;5092553;28;20671;-78
2023/01/26 07:38:31;;;;;;;40.10;15.03;;;;;;;-0.01;100.00;100038.81;5093032;28;20027;-79
2023/01/26 07:40:57;;;;;;;39.50;15.68;;;;;;;0.09;100.00;100044.25;5092762;28;20264;-77
2023/01/26 07:43:23;;;;;;;38.73;14.40;;;;;;;0.13;100.00;100053.56;5092952;28;20031;-77
2023/01/26 07:45:51;;;;;;;42.17;15.63;;;;;;;0.18;100.00;100043.59;5092692;28;20269;-76
2023/01/26 07:48:19;;;;;;;33.77;14.10;;;;;;;0.22;100.00;100037.19;5091859;28;20024;-76
2023/01/26 07:50:48;;;;;;;37.07;15.63;;;;;;;0.16;100.00;100047.28;5074176;28;20268;-76
2023/01/26 07:53:18;;;;;;;37.33;15.60;;;;;;;0.11;100.00;100039.72;5092215;28;20268;-76
2023/01/26 07:55:45;;;;;;;40.10;16.23;;;;;;;0.03;100.00;100046.44;5092244;28;20271;-76
2023/01/26 07:58:11;;;;;;;36.90;15.47;;;;;;;0.19;100.00;100044.44;5072743;28;20942;-76
2023/01/26 08:00:38;;;;;;;39.03;15.83;;;;;;;0.15;100.00;100037.69;5072166;28;20261;-76
2023/01/26 08:03:06;;;;;;;40.50;15.37;;;;;;;0.30;100.00;100039.25;5053934;28;20300;-76
2023/01/26 08:05:32;;;;;;;37.27;14.87;;;;;;;0.34;100.00;100032.84;5071886;28;20269;-76
2023/01/26 08:07:59;;;;;;;37.03;15.77;;;;;;;0.43;100.00;100032.16;5071804;28;20744;-76
2023/01/26 08:10:30;;;;;;;37.03;14.40;;;;;;;0.51;100.00;100036.88;5054111;28;20645;-76
2023/01/26 08:12:59;;;;;;;31.30;13.67;;;;;;;0.49;100.00;100039.59;5071917;28;20253;-76
2023/01/26 08:15:25;;;;;;;30.53;13.53;;;;;;;0.45;100.00;100018.91;5072149;28;20258;-76
2023/01/26 08:17:52;;;;;;;35.77;13.83;;;;;;;0.47;100.00;100025.72;5072159;28;20267;-77
2023/01/26 08:20:18;;;;;;;31.97;13.70;;;;;;;0.53;100.00;100032.34;5072205;28;20348;-77
2023/01/26 08:22:45;;;;;;;33.33;13.20;;;;;;;0.42;100.00;100021.75;5072299;28;20333;-77
2023/01/26 08:25:10;;;;;;;37.00;15.13;;;;;;;0.39;100.00;100014.09;5072234;28;20040;-76
2023/01/26 08:27:42;;;;;;;33.67;14.77;;;;;;;0.54;100.00;100026.97;5072559;28;20266;-79
2023/01/26 08:30:08;;;;;;;32.73;14.43;;;;;;;0.52;100.00;100018.34;5075778;28;20024;-78
2023/01/26 08:32:34;;;;;;;37.83;14.17;;;;;;;0.39;100.00;100022.81;5075646;28;20257;-76
2023/01/26 08:34:59;;;;;;;35.17;14.30;;;;;;;0.47;100.00;100019.63;5075342;28;20355;-77
2023/01/26 08:37:25;;;;;;;36.40;15.00;;;;;;;0.54;100.00;100024.34;5075390;28;20029;-77
2023/01/26 08:39:50;;;;;;;34.93;13.80;;;;;;;0.43;100.00;100016.41;5075365;28;20470;-78
2023/01/26 08:42:16;;;;;;;37.57;15.70;;;;;;;0.43;100.00;100026.91;5075444;28;20102;-78
2023/01/26 08:44:41;;;;;;;36.07;14.47;;;;;;;0.38;100.00;100022.91;5057193;28;20032;-76
2023/01/26 08:47:09;;;;;;;36.17;14.87;;;;;;;0.39;100.00;100028.06;5073758;28;20054;-78
2023/01/26 08:49:35;;;;;;;39.20;14.77;;;;;;;0.42;100.00;100025.22;5072308;28;20060;-77
2023/01/26 08:52:02;;;;;;;38.17;15.97;;;;;;;0.46;100.00;100017.97;5075002;28;20296;-78
2023/01/26 08:54:28;;;;;;;38.70;15.53;;;;;;;0.52;100.00;100026.25;5069451;28;20099;-78
2023/01/26 08:56:54;;;;;;;36.33;14.53;;;;;;;0.57;100.00;100031.19;5054771;28;20293;-79
2023/01/26 08:59:20;;;;;;;38.57;15.20;;;;;;;0.65;100.00;100028.81;5054912;28;20496;-80
2023/01/26 09:01:47;;;;;;;32.87;13.97;;;;;;;0.60;100.00;100034.41;5055222;28;20291;-81
2023/01/26 09:04:13;;;;;;;35.60;13.60;;;;;;;0.55;100.00;100025.19;5057729;28;20032;-77
2023/01/26 09:06:39;;;;;;;35.23;14.43;;;;;;;0.49;100.00;100030.88;5074342;28;20273;-79
2023/01/26 09:09:05;;;;;;;34.00;15.10;;;;;;;0.56;100.00;100034.75;5063467;28;20483;-76
2023/01/26 09:11:30;;;;;;;36.10;14.60;;;;;;;0.45;100.00;100032.06;5068546;28;20277;-77
2023/01/26 09:13:56;;;;;;;40.23;15.60;;;;;;;0.46;100.00;100024.06;5074128;28;20089;-78
2023/01/26 09:16:22;;;;;;;37.20;14.43;;;;;;;0.46;100.00;100025.84;5051560;28;20028;-78
2023/01/26 09:18:50;;;;;;;41.47;16.53;;;;;;;0.54;100.00;100032.22;5053784;28;20107;-78
2023/01/26 09:21:15;;;;;;;37.30;15.23;;;;;;;0.56;100.00;100026.88;5047865;28;20269;-77
2023/01/26 09:23:41;;;;;;;36.07;15.43;;;;;;;0.61;100.00;100030.81;5073986;28;20260;-77
2023/01/26 09:26:06;;;;;;;39.03;15.67;;;;;;;0.64;100.00;100040.28;5073987;28;20032;-78
2023/01/26 09:28:32;;;;;;;38.73;15.33;;;;;;;0.72;100.00;100030.88;5073878;28;20036;-78
2023/01/26 09:31:05;;;;;;;36.93;15.13;;;;;;;0.78;100.00;100023.50;5073784;28;20028;-78
2023/01/26 09:33:32;;;;;;;36.00;15.47;;;;;;;0.75;100.00;100021.94;5073679;28;20055;-77
2023/01/26 09:36:06;;;;;;;41.90;16.83;;;;;;;0.82;100.00;100014.41;5073021;28;20261;-78
2023/01/26 09:38:33;;;;;;;38.90;15.73;;;;;;;0.70;100.00;100022.25;5073270;28;20257;-78
2023/01/26 09:41:04;;;;;;;37.07;16.17;;;;;;;0.87;100.00;100026.28;5073623;28;20265;-78
2023/01/26 09:43:48;;;;;;;36.40;15.27;;;;;;;0.92;100.00;100003.13;5073152;28;20288;-78
2023/01/26 09:46:19;;;;;;;35.70;16.33;;;;;;;0.83;100.00;100019.56;5073041;28;20257;-78
2023/01/26 09:49:11;;;;;;;47.73;19.70;;;;;;;0.91;100.00;100017.22;5073917;28;20035;-77
2023/01/26 09:51:40;;;;;;;42.13;17.67;;;;;;;0.81;100.00;100010.13;5054277;28;20633;-77
2023/01/26 09:54:37;;;;;;;46.87;20.27;;;;;;;0.82;100.00;100017.03;5073046;28;20265;-77
2023/01/26 09:57:13;;;;;;;45.57;19.50;;;;;;;0.85;100.00;100019.47;5072902;28;20631;-78
2023/01/26 10:00:04;;;;;;;39.47;15.43;;;;;;;0.91;100.00;100011.13;5073019;28;20274;-78
2023/01/26 10:02:36;;;;;;;41.20;15.73;;;;;;;0.96;100.00;100007.19;5061562;28;20273;-78
2023/01/26 10:05:15;;;;;;;40.53;16.87;;;;;;;0.95;100.00;100007.28;5073231;28;20260;-77
2023/01/26 10:07:44;;;;;;;43.50;17.50;;;;;;;0.95;100.00;100010.78;5073387;28;20258;-77
2023/01/26 10:10:28;;;;;;;41.07;14.67;;;;;;;0.87;100.00;100010.50;5073334;28;20276;-78
2023/01/26 10:12:54;;;;;;;;;;;;;;;0.85;100.00;100004.50;5073765;28;20295;-78
2023/01/26 10:15:35;;;;;;;44.80;16.53;;;;;;;0.72;100.00;99996.69;5067357;28;20451;-77
2023/01/26 10:18:07;;;;;;;40.37;15.23;;;;;;;0.69;100.00;100001.34;5072875;28;20699;-78
2023/01/26 10:20:36;;;;;;;43.43;15.93;;;;;;;0.77;100.00;99987.63;5071047;28;20257;-78
2023/01/26 10:23:14;;;;;;;49.70;17.20;;;;;;;0.89;100.00;99986.72;5052809;28;20258;-77
2023/01/26 10:25:41;;;;;;;42.73;16.83;;;;;;;0.97;100.00;99992.22;5034773;28;20269;-77
2023/01/26 10:28:15;;;;;;;45.03;18.03;;;;;;;1.02;100.00;99993.59;5052561;28;20268;-78
2023/01/26 10:30:43;;;;;;;44.30;16.27;;;;;;;1.00;100.00;99984.13;5052857;28;20262;-78
2023/01/26 10:33:19;;;;;;;43.47;17.73;;;;;;;1.02;100.00;99990.94;5053156;28;20288;-78
2023/01/26 10:35:44;;;;;;;43.00;15.93;;;;;;;1.00;100.00;99979.69;5066041;28;20297;-77
2023/01/26 10:38:31;;;;;;;45.73;16.43;;;;;;;1.00;100.00;99982.31;5057906;28;20297;-77
2023/01/26 10:41:13;;;;;;;47.03;17.67;;;;;;;1.07;100.00;99964.28;5053011;28;20111;-78
2023/01/26 10:43:56;;;;;;;47.00;17.53;;;;;;;1.06;100.00;99967.84;5034867;28;20606;-78
2023/01/26 10:46:27;;;;;;;47.10;19.15;;;;;;;1.02;100.00;99972.53;5053303;28;20269;-78
2023/01/26 10:48:56;;;;;;;41.63;17.07;;;;;;;1.03;100.00;99968.94;5053309;28;20480;-78
2023/01/26 10:51:44;;;;;;;48.83;20.00;;;;;;;1.07;100.00;99967.75;5052141;28;20261;-78
2023/01/26 10:54:24;;;;;;;48.50;17.93;;;;;;;1.18;100.00;99963.44;5034760;28;20282;-78
2023/01/26 10:57:12;;;;;;;43.77;17.00;;;;;;;1.18;100.00;99956.41;5060376;28;20612;-78
2023/01/26 10:59:48;;;;;;;48.37;19.87;;;;;;;1.13;100.00;99949.81;5072303;28;20312;-78
2023/01/26 11:02:13;;;;;;;92.97;46.03;;;;;;;1.16;100.00;99945.13;5072392;28;20269;-78
2023/01/26 11:04:39;;;;;;;45.87;19.10;;;;;;;1.11;100.00;99951.72;5072127;28;20262;-78
2023/01/26 11:07:26;;;;;;;42.37;16.00;;;;;;;1.07;100.00;99940.56;5054021;28;20074;-77
2023/01/26 11:09:53;;;;;;;48.03;17.67;;;;;;;1.07;100.00;99948.47;5071967;28;20024;-78
2023/01/26 11:12:20;;;;;;;47.60;18.37;;;;;;;1.22;100.00;99938.56;5072126;28;20253;-78
2023/01/26 11:15:01;;;;;;;50.67;18.20;;;;;;;1.26;100.00;99932.97;5069832;28;20347;-78
2023/01/26 11:17:32;;;;;;;51.13;20.17;;;;;;;1.17;100.00;99932.81;5060392;28;20261;-78
2023/01/26 11:20:06;;;;;;;45.80;18.43;;;;;;;1.20;100.00;99935.22;5072134;28;20288;-78
2023/01/26 11:22:47;;;;;;;41.03;16.52;;;;;;;1.01;100.00;99920.00;5054289;28;20272;-78
2023/01/26 11:25:28;;;;;;;43.30;16.13;;;;;;;1.15;100.00;99926.84;5047918;28;20052;-79
2023/01/26 11:28:15;;;;;;;38.07;14.80;;;;;;;1.04;100.00;99933.75;5052167;28;20281;-78
2023/01/26 11:30:49;;;;;;;38.70;15.57;;;;;;;1.18;100.00;99924.81;5052176;28;20879;-78
2023/01/26 11:33:42;;;;;;;42.23;16.10;;;;;;;1.18;100.00;99926.59;5052213;28;20261;-78
2023/01/26 11:36:36;;;;;;;40.53;15.10;;;;;;;1.18;100.00;99914.28;5052244;28;20238;-78
2023/01/26 11:39:14;;;;;;;42.85;17.95;;;;;;;1.23;100.00;99908.66;5051157;28;20798;-76
2023/01/26 11:42:06;;;;;;;37.20;16.03;;;;;;;1.27;100.00;99913.56;5051057;28;20472;-76
2023/01/26 11:44:38;;;;;;;38.10;14.70;;;;;;;1.27;100.00;99908.28;5033134;28;20644;-76
2023/01/26 11:47:21;;;;;;;37.90;15.13;;;;;;;1.27;100.00;99900.41;5052087;28;20815;-77
2023/01/26 11:50:16;;;;;;;43.92;15.68;;;;;;;1.25;100.00;99902.34;5034627;28;20300;-78
2023/01/26 11:52:55;;;;;;;45.43;17.33;;;;;;;1.23;100.00;99891.06;5052279;28;20040;-77
2023/01/26 11:55:51;;;;;;;52.10;19.50;;;;;;;1.23;100.00;99900.78;5052461;28;20341;-78
2023/01/26 11:58:35;;;;;;;45.33;18.77;;;;;;;1.32;100.00;99894.78;5040274;28;20339;-77
2023/01/26 12:01:32;;;;;;;54.90;21.13;;;;;;;1.38;100.00;99884.63;5052558;28;20286;-78
2023/01/26 12:03:58;;;;;;;43.53;18.20;;;;;;;1.34;100.00;99880.53;5056549;28;20617;-78
2023/01/26 12:06:42;;;;;;;47.13;17.27;;;;;;;1.48;100.00;99870.72;5058567;28;20262;-77